createdAt,value
2022-10-07T00:00:31.494Z,50.834797
2022-10-07T00:01:31.517Z,50.834805
2022-10-07T00:02:31.535Z,50.834831
2022-10-07T00:03:31.521Z,50.834827
2022-10-07T00:04:32.316Z,50.834862
2022-10-07T00:05:31.494Z,50.834835
2022-10-07T00:06:32.565Z,50.834850
2022-10-07T00:07:31.519Z,50.834831
2022-10-07T00:08:31.515Z,50.834808
2022-10-07T00:09:31.411Z,50.834824
2022-10-07T00:10:31.477Z,50.834808
2022-10-07T00:11:31.401Z,50.834770
2022-10-07T00:12:31.407Z,50.834778
2022-10-07T00:13:31.378Z,50.834797
2022-10-07T00:14:31.382Z,50.834827
2022-10-07T00:15:31.935Z,50.834808
2022-10-07T00:16:32.399Z,50.834808
2022-10-07T00:17:31.546Z,50.834835
2022-10-07T00:18:31.474Z,50.834785
2022-10-07T00:19:31.360Z,50.834789
2022-10-07T00:20:31.339Z,50.834816
2022-10-07T00:21:31.374Z,50.834805
2022-10-07T00:22:31.299Z,50.834774
2022-10-07T00:23:31.278Z,50.834763
2022-10-07T00:24:31.288Z,50.834770
2022-10-07T00:25:31.286Z,50.834827
2022-10-07T00:26:31.287Z,50.834839
2022-10-07T00:27:31.268Z,50.834835
2022-10-07T00:28:31.327Z,50.834869
2022-10-07T00:29:31.278Z,50.834820
2022-10-07T00:30:31.345Z,50.834816
2022-10-07T00:31:31.277Z,50.834827
2022-10-07T00:32:31.294Z,50.834827
2022-10-07T00:33:31.211Z,50.834820
2022-10-07T00:34:31.397Z,50.834820
2022-10-07T00:35:31.775Z,50.834816
2022-10-07T00:36:32.064Z,50.834801
2022-10-07T00:37:31.255Z,50.834816
2022-10-07T00:38:31.286Z,50.834808
2022-10-07T00:39:31.189Z,50.834816
2022-10-07T00:40:31.217Z,50.834805
2022-10-07T00:41:31.676Z,50.834827
2022-10-07T00:42:31.206Z,50.834820
2022-10-07T00:43:33.683Z,50.834816
2022-10-07T00:44:34.153Z,50.834805
2022-10-07T00:45:31.212Z,50.834816
2022-10-07T00:46:31.182Z,50.834793
2022-10-07T00:47:31.174Z,50.834797
2022-10-07T00:48:31.226Z,50.834805
2022-10-07T00:49:31.167Z,50.834812
2022-10-07T00:50:31.154Z,50.834808
2022-10-07T00:51:31.082Z,50.834801
2022-10-07T00:52:33.576Z,50.834793
2022-10-07T00:53:31.144Z,50.834797
2022-10-07T00:54:31.835Z,50.834801
2022-10-07T00:55:31.060Z,50.834820
2022-10-07T00:56:31.132Z,50.834816
2022-10-07T00:57:31.887Z,50.834797
2022-10-07T00:58:31.803Z,50.834797
2022-10-07T00:59:31.649Z,50.834778
2022-10-07T01:00:31.042Z,50.834797
2022-10-07T01:01:32.088Z,50.834789
2022-10-07T01:02:31.096Z,50.834770
2022-10-07T01:03:32.238Z,50.834789
2022-10-07T01:04:31.049Z,50.834778
2022-10-07T01:05:31.056Z,50.834808
2022-10-07T01:06:31.058Z,50.834812
2022-10-07T01:07:30.993Z,50.834805
2022-10-07T01:08:31.008Z,50.834827
2022-10-07T01:09:31.011Z,50.834816
2022-10-07T01:10:30.957Z,50.834820
2022-10-07T01:11:30.995Z,50.834789
2022-10-07T01:12:30.991Z,50.834820
2022-10-07T01:13:31.654Z,50.834816
2022-10-07T01:14:30.943Z,50.834808
2022-10-07T01:15:30.939Z,50.834808
2022-10-07T01:16:30.994Z,50.834816
2022-10-07T01:17:30.899Z,50.834816
2022-10-07T01:18:30.891Z,50.834812
2022-10-07T01:19:30.898Z,50.834820
2022-10-07T01:20:30.882Z,50.834797
2022-10-07T01:21:31.577Z,50.834797
2022-10-07T01:22:30.875Z,50.834801
2022-10-07T01:23:30.896Z,50.834793
2022-10-07T01:24:30.972Z,50.834797
2022-10-07T01:25:30.922Z,50.834789
2022-10-07T01:26:30.900Z,50.834793
2022-10-07T01:27:30.937Z,50.834774
2022-10-07T01:28:30.992Z,50.834770
2022-10-07T01:29:30.899Z,50.834778
2022-10-07T01:30:30.927Z,50.834763
2022-10-07T01:31:30.827Z,50.834770
2022-10-07T01:32:30.917Z,50.834782
2022-10-07T01:33:30.776Z,50.834801
2022-10-07T01:34:32.073Z,50.834793
2022-10-07T01:35:30.802Z,50.834797
2022-10-07T01:36:30.793Z,50.834812
2022-10-07T01:37:30.806Z,50.834816
2022-10-07T01:38:30.781Z,50.834808
2022-10-07T01:39:30.815Z,50.834816
2022-10-07T01:40:31.573Z,50.834808
2022-10-07T01:41:30.781Z,50.834816
2022-10-07T01:42:30.734Z,50.834812
2022-10-07T01:43:30.805Z,50.834797
2022-10-07T01:44:30.722Z,50.834793
2022-10-07T02:05:16.575Z,50.834808
2022-10-07T02:06:16.649Z,50.834770
2022-10-07T02:07:16.591Z,50.834789
2022-10-07T02:08:17.614Z,50.834785
2022-10-07T02:09:16.590Z,50.834789
2022-10-07T02:10:17.532Z,50.834782
2022-10-07T02:11:16.578Z,50.834789
2022-10-07T02:12:16.608Z,50.834793
2022-10-07T02:13:16.566Z,50.834797
2022-10-07T02:14:16.543Z,50.834785
2022-10-07T02:15:48.560Z,50.834808
2022-10-07T02:16:16.517Z,50.834789
2022-10-07T02:17:16.523Z,50.834812
2022-10-07T02:18:16.481Z,50.834801
2022-10-07T02:19:17.998Z,50.834812
2022-10-07T02:20:17.276Z,50.834824
2022-10-07T02:21:16.507Z,50.834808
2022-10-07T02:22:16.529Z,50.834801
2022-10-07T02:23:16.513Z,50.834812
2022-10-07T02:24:16.491Z,50.834812
2022-10-07T02:25:17.084Z,50.834816
2022-10-07T02:26:16.497Z,50.834789
2022-10-07T02:27:16.529Z,50.834812
2022-10-07T02:28:16.670Z,50.834774
2022-10-07T02:29:16.433Z,50.834797
2022-10-07T02:30:17.130Z,50.834801
2022-10-07T02:31:16.481Z,50.834820
2022-10-07T02:32:16.458Z,50.834808
2022-10-07T02:33:16.476Z,50.834816
2022-10-07T02:34:19.933Z,50.834820
2022-10-07T02:35:17.366Z,50.834820
2022-10-07T02:36:16.388Z,50.834808
2022-10-07T02:37:16.400Z,50.834808
2022-10-07T02:38:16.376Z,50.834816
2022-10-07T02:39:16.376Z,50.834808
2022-10-07T02:40:17.018Z,50.834816
2022-10-07T02:41:16.350Z,50.834846
2022-10-07T02:42:16.394Z,50.834797
2022-10-07T02:43:16.357Z,50.834839
2022-10-07T02:44:16.322Z,50.834812
2022-10-07T02:45:16.345Z,50.834816
2022-10-07T02:46:16.375Z,50.834827
2022-10-07T02:47:16.366Z,50.834824
2022-10-07T02:48:16.309Z,50.834820
2022-10-07T02:49:16.347Z,50.834824
2022-10-07T02:50:16.270Z,50.834827
2022-10-07T02:51:20.669Z,50.834839
2022-10-07T02:52:17.272Z,50.834846
2022-10-07T02:53:16.276Z,50.834835
2022-10-07T02:54:16.312Z,50.834816
2022-10-07T02:55:16.524Z,50.834793
2022-10-07T02:56:17.349Z,50.834789
2022-10-07T02:57:16.323Z,50.834789
2022-10-07T02:58:16.281Z,50.834789
2022-10-07T02:59:16.245Z,50.834831
2022-10-07T03:00:16.285Z,50.834820
2022-10-07T03:01:16.275Z,50.834805
2022-10-07T03:02:16.281Z,50.834827
2022-10-07T03:03:16.744Z,50.834843
2022-10-07T03:04:16.223Z,50.834843
2022-10-07T03:05:16.526Z,50.834839
2022-10-07T03:06:16.249Z,50.834846
2022-10-07T03:07:16.161Z,50.834846
2022-10-07T03:08:16.170Z,50.834850
2022-10-07T03:09:16.195Z,50.834835
2022-10-07T03:10:16.148Z,50.834835
2022-10-07T03:11:16.098Z,50.834843
2022-10-07T03:12:16.123Z,50.834808
2022-10-07T03:13:16.148Z,50.834843
2022-10-07T03:14:16.079Z,50.834812
2022-10-07T03:15:16.180Z,50.834808
2022-10-07T03:16:16.194Z,50.834797
2022-10-07T03:17:16.133Z,50.834812
2022-10-07T03:18:16.029Z,50.834808
2022-10-07T03:19:16.059Z,50.834812
2022-10-07T03:20:16.006Z,50.834831
2022-10-07T03:21:16.120Z,50.834824
2022-10-07T03:22:16.050Z,50.834824
2022-10-07T03:23:16.038Z,50.834831
2022-10-07T03:24:16.067Z,50.834820
2022-10-07T03:25:16.027Z,50.834824
2022-10-07T03:26:16.029Z,50.834820
2022-10-07T03:27:15.954Z,50.834812
2022-10-07T03:28:16.047Z,50.834812
2022-10-07T03:29:16.023Z,50.834812
2022-10-07T03:30:21.142Z,50.834812
2022-10-07T03:31:18.438Z,50.834808
2022-10-07T03:32:16.816Z,50.834839
2022-10-07T03:33:15.951Z,50.834808
2022-10-07T03:34:15.977Z,50.834850
2022-10-07T03:35:17.518Z,50.834843
2022-10-07T03:36:15.975Z,50.834866
2022-10-07T03:37:17.590Z,50.834888
2022-10-07T03:38:15.932Z,50.834854
2022-10-07T03:39:15.909Z,50.834869
2022-10-07T03:40:16.156Z,50.834854
2022-10-07T03:41:16.709Z,50.834850
2022-10-07T03:42:17.112Z,50.834835
2022-10-07T03:43:16.943Z,50.834854
2022-10-07T03:44:17.254Z,50.834866
2022-10-07T03:45:16.749Z,50.834858
2022-10-07T03:46:16.740Z,50.834866
2022-10-07T04:05:30.887Z,50.834770
2022-10-07T04:06:32.089Z,50.834831
2022-10-07T04:07:30.871Z,50.834839
2022-10-07T04:08:32.686Z,50.834831
2022-10-07T04:09:31.905Z,50.834843
2022-10-07T04:10:31.569Z,50.834858
2022-10-07T04:11:30.861Z,50.834866
2022-10-07T04:12:33.871Z,50.834839
2022-10-07T04:13:30.865Z,50.834789
2022-10-07T04:14:30.862Z,50.834816
2022-10-07T04:15:30.850Z,50.834858
2022-10-07T04:16:34.715Z,50.834839
2022-10-07T04:17:31.785Z,50.834812
2022-10-07T04:18:31.145Z,50.834805
2022-10-07T04:19:30.971Z,50.834820
2022-10-07T04:20:30.824Z,50.834805
2022-10-07T04:21:30.792Z,50.834820
2022-10-07T04:22:30.767Z,50.834816
2022-10-07T04:23:30.790Z,50.834824
2022-10-07T04:24:30.852Z,50.834831
2022-10-07T04:25:34.294Z,50.834839
2022-10-07T04:26:30.755Z,50.834858
2022-10-07T04:27:50.657Z,50.834820
2022-10-07T04:28:32.831Z,50.834808
2022-10-07T04:29:36.638Z,50.834835
2022-10-07T04:30:32.939Z,50.834824
2022-10-07T04:31:32.866Z,50.834797
2022-10-07T04:32:31.855Z,50.834782
2022-10-07T04:33:30.780Z,50.834801
2022-10-07T04:34:30.771Z,50.834793
2022-10-07T04:35:31.302Z,50.834797
2022-10-07T04:36:30.768Z,50.834801
2022-10-07T04:37:32.296Z,50.834835
2022-10-07T04:38:31.308Z,50.834831
2022-10-07T04:39:56.050Z,50.834793
2022-10-07T04:40:32.711Z,50.834808
2022-10-07T04:41:30.715Z,50.834824
2022-10-07T04:42:31.328Z,50.834820
2022-10-07T04:43:30.765Z,50.834816
2022-10-07T04:44:30.673Z,50.834805
2022-10-07T04:45:30.681Z,50.834808
2022-10-07T04:46:31.557Z,50.834820
2022-10-07T04:47:30.670Z,50.834801
2022-10-07T04:48:34.827Z,50.834785
2022-10-07T04:49:30.751Z,50.834801
2022-10-07T04:50:31.318Z,50.834831
2022-10-07T04:51:31.303Z,50.834827
2022-10-07T04:52:31.302Z,50.834797
2022-10-07T04:53:31.388Z,50.834816
2022-10-07T04:54:31.796Z,50.834793
2022-10-07T04:55:30.574Z,50.834797
2022-10-07T04:56:31.607Z,50.834808
2022-10-07T04:57:31.795Z,50.834808
2022-10-07T04:58:31.108Z,50.834782
2022-10-07T04:59:31.729Z,50.834805
2022-10-07T05:00:31.623Z,50.834805
2022-10-07T05:01:31.375Z,50.834808
2022-10-07T05:02:32.114Z,50.834812
2022-10-07T05:03:30.514Z,50.834816
2022-10-07T05:04:31.547Z,50.834805
2022-10-07T05:05:30.526Z,50.834812
2022-10-07T05:06:30.453Z,50.834774
2022-10-07T05:07:30.451Z,50.834797
2022-10-07T05:08:30.536Z,50.834801
2022-10-07T05:09:30.455Z,50.834797
2022-10-07T05:10:30.482Z,50.834778
2022-10-07T05:11:32.399Z,50.834793
2022-10-07T05:12:32.315Z,50.834793
2022-10-07T05:13:30.495Z,50.834797
2022-10-07T05:14:30.393Z,50.834801
2022-10-07T05:15:30.417Z,50.834812
2022-10-07T05:16:30.452Z,50.834831
2022-10-07T05:17:30.485Z,50.834820
2022-10-07T05:18:30.348Z,50.834812
2022-10-07T05:19:30.408Z,50.834816
2022-10-07T05:20:30.327Z,50.834812
2022-10-07T05:21:30.332Z,50.834812
2022-10-07T05:22:31.140Z,50.834812
2022-10-07T05:23:30.799Z,50.834801
2022-10-07T05:24:30.321Z,50.834808
2022-10-07T05:25:30.279Z,50.834824
2022-10-07T05:26:30.347Z,50.834808
2022-10-07T05:27:30.338Z,50.834816
2022-10-07T05:28:30.887Z,50.834782
2022-10-07T05:29:30.297Z,50.834793
2022-10-07T05:30:30.303Z,50.834801
2022-10-07T05:31:30.432Z,50.834805
2022-10-07T05:32:30.279Z,50.834827
2022-10-07T05:33:30.798Z,50.834812
2022-10-07T05:34:30.235Z,50.834816
2022-10-07T05:35:30.251Z,50.834824
2022-10-07T05:36:30.266Z,50.834805
2022-10-07T05:37:30.250Z,50.834808
2022-10-07T05:38:30.244Z,50.834778
2022-10-07T05:39:30.254Z,50.834785
2022-10-07T05:40:30.302Z,50.834789
2022-10-07T05:41:30.800Z,50.834831
2022-10-07T05:42:30.250Z,50.834805
2022-10-07T05:43:30.199Z,50.834805
2022-10-07T05:44:30.305Z,50.834785
2022-10-07T05:45:30.217Z,50.834789
2022-10-07T05:46:30.266Z,50.834774
2022-10-07T05:47:30.799Z,50.834778
2022-10-07T05:48:30.104Z,50.834797
2022-10-07T05:49:30.235Z,50.834789
2022-10-07T05:50:30.140Z,50.834774
2022-10-07T05:51:30.191Z,50.834778
2022-10-07T05:52:30.115Z,50.834789
2022-10-07T05:53:30.147Z,50.834808
2022-10-07T05:54:30.179Z,50.834812
2022-10-07T05:55:30.079Z,50.834824
2022-10-07T05:56:30.044Z,50.834824
2022-10-07T05:57:30.092Z,50.834808
2022-10-07T05:58:30.215Z,50.834789
2022-10-07T05:59:30.018Z,50.834763
2022-10-07T06:00:30.167Z,50.834770
2022-10-07T06:01:30.102Z,50.834766
2022-10-07T06:02:30.139Z,50.834770
2022-10-07T06:03:30.026Z,50.834778
2022-10-07T06:04:30.033Z,50.834778
2022-10-07T06:05:30.040Z,50.834774
2022-10-07T06:06:30.051Z,50.834778
2022-10-07T06:07:29.991Z,50.834778
2022-10-07T06:08:30.805Z,50.834801
2022-10-07T06:09:30.631Z,50.834789
2022-10-07T06:10:30.819Z,50.834785
2022-10-07T06:11:30.586Z,50.834797
2022-10-07T06:12:33.863Z,50.834789
2022-10-07T06:13:29.961Z,50.834774
2022-10-07T06:14:31.299Z,50.834793
2022-10-07T06:15:32.105Z,50.834812
2022-10-07T06:16:31.366Z,50.834774
2022-10-07T06:17:30.583Z,50.834793
2022-10-07T06:18:30.619Z,50.834801
2022-10-07T06:19:30.560Z,50.834782
2022-10-07T06:20:31.814Z,50.834774
2022-10-07T06:21:29.989Z,50.834774
2022-10-07T06:22:30.599Z,50.834797
2022-10-07T06:23:29.974Z,50.834782
2022-10-07T06:24:30.624Z,50.834774
2022-10-07T06:25:30.078Z,50.834759
2022-10-07T06:26:29.853Z,50.834766
2022-10-07T06:27:29.767Z,50.834763
2022-10-07T06:28:31.341Z,50.834774
2022-10-07T06:29:30.830Z,50.834774
2022-10-07T06:30:29.831Z,50.834770
2022-10-07T06:31:29.754Z,50.834766
2022-10-07T06:32:30.433Z,50.834766
2022-10-07T06:33:31.584Z,50.834766
2022-10-07T06:34:29.786Z,50.834778
2022-10-07T06:35:29.764Z,50.834774
2022-10-07T06:36:29.814Z,50.834770
2022-10-07T06:37:30.632Z,50.834774
2022-10-07T06:38:30.628Z,50.834782
2022-10-07T06:39:29.831Z,50.834763
2022-10-07T06:40:29.896Z,50.834774
2022-10-07T06:41:30.869Z,50.834766
2022-10-07T06:42:29.884Z,50.834763
2022-10-07T06:43:29.770Z,50.834763
2022-10-07T06:44:30.359Z,50.834751
2022-10-07T06:45:30.308Z,50.834759
2022-10-07T06:46:30.563Z,50.834778
2022-10-07T06:47:30.678Z,50.834785
2022-10-07T06:48:31.809Z,50.834774
2022-10-07T06:49:30.615Z,50.834782
2022-10-07T06:50:31.069Z,50.834778
2022-10-07T06:51:29.715Z,50.834774
2022-10-07T06:52:31.591Z,50.834778
2022-10-07T06:53:29.545Z,50.834782
2022-10-07T06:54:34.319Z,50.834770
2022-10-07T06:55:29.591Z,50.834774
2022-10-07T06:56:30.527Z,50.834793
2022-10-07T06:57:46.189Z,50.834785
2022-10-07T06:58:33.425Z,50.834789
2022-10-07T06:59:29.590Z,50.834774
2022-10-07T07:00:29.633Z,50.834785
2022-10-07T07:01:29.695Z,50.834785
2022-10-07T07:02:31.360Z,50.834774
2022-10-07T07:03:30.470Z,50.834785
2022-10-07T07:04:29.556Z,50.834797
2022-10-07T07:05:29.480Z,50.834824
2022-10-07T07:06:32.339Z,50.834816
2022-10-07T07:07:30.766Z,50.834835
2022-10-07T07:08:30.468Z,50.834812
2022-10-07T07:09:29.542Z,50.834824
2022-10-07T07:10:29.546Z,50.834824
2022-10-07T07:11:31.811Z,50.834835
2022-10-07T07:12:29.446Z,50.834854
2022-10-07T07:13:31.405Z,50.834846
2022-10-07T07:14:29.546Z,50.834843
2022-10-07T07:15:29.540Z,50.834824
2022-10-07T07:16:29.575Z,50.834839
2022-10-07T07:17:29.500Z,50.834797
2022-10-07T07:18:44.416Z,50.834824
2022-10-07T07:19:29.459Z,50.834805
2022-10-07T07:20:29.584Z,50.834797
2022-10-07T07:21:29.424Z,50.834808
2022-10-07T07:22:29.483Z,50.834763
2022-10-07T07:23:29.435Z,50.834816
2022-10-07T07:24:30.676Z,50.834812
2022-10-07T07:25:30.315Z,50.834801
2022-10-07T07:26:30.175Z,50.834835
2022-10-07T07:27:30.329Z,50.834785
2022-10-07T07:28:29.402Z,50.834820
2022-10-07T07:29:29.371Z,50.834812
2022-10-07T07:30:29.843Z,50.834805
2022-10-07T07:31:29.477Z,50.834808
2022-10-07T07:32:29.425Z,50.834805
2022-10-07T07:34:01.766Z,50.834820
2022-10-07T07:34:29.275Z,50.834805
2022-10-07T07:35:29.280Z,50.834824
2022-10-07T07:36:29.347Z,50.834835
2022-10-07T07:37:29.359Z,50.834808
2022-10-07T07:38:29.317Z,50.834816
2022-10-07T07:39:29.244Z,50.834797
2022-10-07T07:40:29.243Z,50.834793
2022-10-07T07:41:29.220Z,50.834805
2022-10-07T07:42:29.433Z,50.834797
2022-10-07T07:43:29.220Z,50.834785
2022-10-07T07:44:33.968Z,50.834808
2022-10-07T07:45:31.387Z,50.834805
2022-10-07T07:46:30.355Z,50.834824
2022-10-07T07:47:30.853Z,50.834820
2022-10-07T07:48:29.908Z,50.834850
2022-10-07T07:49:30.092Z,50.834843
2022-10-07T07:50:30.058Z,50.834843
2022-10-07T07:51:30.072Z,50.834854
2022-10-07T07:52:29.886Z,50.834805
2022-10-07T07:53:30.057Z,50.834824
2022-10-07T07:54:30.354Z,50.834820
2022-10-07T07:55:29.653Z,50.834827
2022-10-07T07:56:32.093Z,50.834816
2022-10-07T07:57:29.962Z,50.834816
2022-10-07T07:58:29.222Z,50.834816
2022-10-07T07:59:29.459Z,50.834824
2022-10-07T08:00:29.504Z,50.834846
2022-10-07T08:01:31.197Z,50.834846
2022-10-07T08:02:30.167Z,50.834835
2022-10-07T08:03:29.184Z,50.834816
2022-10-07T08:04:29.245Z,50.834831
2022-10-07T08:05:29.148Z,50.834812
2022-10-07T08:06:29.869Z,50.834827
2022-10-07T08:07:29.036Z,50.834820
2022-10-07T08:08:29.069Z,50.834843
2022-10-07T08:09:29.031Z,50.834843
2022-10-07T08:10:29.016Z,50.834839
2022-10-07T08:11:29.003Z,50.834850
2022-10-07T08:12:30.093Z,50.834869
2022-10-07T08:13:29.710Z,50.834877
2022-10-07T08:14:28.979Z,50.834858
2022-10-07T08:16:02.555Z,50.834850
2022-10-07T08:16:28.899Z,50.834831
2022-10-07T08:17:28.926Z,50.834835
2022-10-07T08:18:28.899Z,50.834831
2022-10-07T08:19:28.911Z,50.834820
2022-10-07T08:20:28.960Z,50.834843
2022-10-07T08:21:28.939Z,50.834839
2022-10-07T08:22:28.903Z,50.834869
2022-10-07T08:23:28.966Z,50.834866
2022-10-07T08:24:28.881Z,50.834869
2022-10-07T08:25:28.855Z,50.834869
2022-10-07T08:26:28.894Z,50.834877
2022-10-07T08:27:28.842Z,50.834866
2022-10-07T08:28:28.924Z,50.834862
2022-10-07T08:29:29.467Z,50.834866
2022-10-07T08:30:28.820Z,50.834866
2022-10-07T08:31:28.900Z,50.834850
2022-10-07T08:32:28.815Z,50.834854
2022-10-07T08:33:28.814Z,50.834850
2022-10-07T08:34:28.819Z,50.834866
2022-10-07T08:35:28.780Z,50.834866
2022-10-07T08:36:28.815Z,50.834858
2022-10-07T08:37:28.767Z,50.834869
2022-10-07T08:38:28.742Z,50.834866
2022-10-07T08:39:28.747Z,50.834862
2022-10-07T08:40:28.762Z,50.834877
2022-10-07T08:41:28.752Z,50.834846
2022-10-07T08:42:28.714Z,50.834854
2022-10-07T08:43:28.752Z,50.834820
2022-10-07T08:44:28.703Z,50.834866
2022-10-07T08:45:28.693Z,50.834854
2022-10-07T08:46:28.752Z,50.834862
2022-10-07T08:47:28.748Z,50.834885
2022-10-07T08:48:28.749Z,50.834866
2022-10-07T08:49:28.636Z,50.834888
2022-10-07T08:50:28.650Z,50.834885
2022-10-07T08:51:28.654Z,50.834877
2022-10-07T08:52:28.664Z,50.834850
2022-10-07T08:53:28.632Z,50.834869
2022-10-07T08:54:28.653Z,50.834858
2022-10-07T08:55:28.650Z,50.834854
2022-10-07T08:56:28.660Z,50.834858
2022-10-07T08:57:28.584Z,50.834869
2022-10-07T08:58:28.613Z,50.834873
2022-10-07T08:59:28.610Z,50.834854
2022-10-07T09:00:28.635Z,50.834843
2022-10-07T09:01:28.667Z,50.834846
2022-10-07T09:02:28.657Z,50.834854
2022-10-07T09:03:28.665Z,50.834850
2022-10-07T09:04:28.551Z,50.834854
2022-10-07T09:05:28.547Z,50.834854
2022-10-07T09:06:29.086Z,50.834846
2022-10-07T09:07:28.554Z,50.834846
2022-10-07T09:08:28.593Z,50.834854
2022-10-07T09:09:28.551Z,50.834866
2022-10-07T09:10:28.552Z,50.834854
2022-10-07T09:11:28.586Z,50.834854
2022-10-07T09:12:28.537Z,50.834866
2022-10-07T09:13:28.516Z,50.834850
2022-10-07T09:14:28.554Z,50.834850
2022-10-07T09:15:29.139Z,50.834850
2022-10-07T09:16:28.486Z,50.834839
2022-10-07T09:17:32.853Z,50.834854
2022-10-07T09:18:30.490Z,50.834854
2022-10-07T09:19:28.447Z,50.834835
2022-10-07T09:20:28.468Z,50.834831
2022-10-07T09:21:28.453Z,50.834850
2022-10-07T09:22:28.489Z,50.834854
2022-10-07T09:23:28.461Z,50.834850
2022-10-07T09:24:28.445Z,50.834850
2022-10-07T09:25:28.437Z,50.834839
2022-10-07T09:26:28.431Z,50.834824
2022-10-07T09:27:28.460Z,50.834846
2022-10-07T09:28:28.428Z,50.834831
2022-10-07T09:29:28.412Z,50.834835
2022-10-07T09:30:28.353Z,50.834827
2022-10-07T09:31:28.491Z,50.834843
2022-10-07T09:32:28.400Z,50.834835
2022-10-07T09:33:28.313Z,50.834858
2022-10-07T09:34:28.347Z,50.834843
2022-10-07T09:35:28.322Z,50.834843
2022-10-07T09:36:28.326Z,50.834846
2022-10-07T09:37:28.316Z,50.834846
2022-10-07T09:38:28.352Z,50.834835
2022-10-07T09:39:28.399Z,50.834839
2022-10-07T09:41:00.687Z,50.834831
2022-10-07T09:41:31.154Z,50.834816
2022-10-07T09:46:28.310Z,50.834854
2022-10-07T09:47:28.235Z,50.834831
2022-10-07T09:48:28.173Z,50.834827
2022-10-07T09:49:28.249Z,50.834793
2022-10-07T09:50:28.251Z,50.834805
2022-10-07T09:52:00.626Z,50.834816
2022-10-07T09:52:28.217Z,50.834801
2022-10-07T09:53:28.143Z,50.834820
2022-10-07T09:54:28.186Z,50.834831
2022-10-07T09:55:28.223Z,50.834827
2022-10-07T09:56:28.190Z,50.834808
2022-10-07T09:57:28.136Z,50.834793
2022-10-07T09:58:28.178Z,50.834774
2022-10-07T09:59:28.153Z,50.834789
2022-10-07T10:00:28.155Z,50.834778
2022-10-07T10:01:28.115Z,50.834785
2022-10-07T10:02:28.219Z,50.834797
2022-10-07T10:03:28.217Z,50.834805
2022-10-07T10:04:28.114Z,50.834793
2022-10-07T10:05:28.113Z,50.834774
2022-10-07T10:06:28.079Z,50.834793
2022-10-07T10:07:29.106Z,50.834770
2022-10-07T10:08:28.128Z,50.834812
2022-10-07T10:09:28.050Z,50.834805
2022-10-07T10:10:28.010Z,50.834808
2022-10-07T10:11:27.994Z,50.834808
2022-10-07T10:12:28.061Z,50.834797
2022-10-07T10:13:27.987Z,50.834793
2022-10-07T10:14:28.611Z,50.834778
2022-10-07T10:15:27.992Z,50.834782
2022-10-07T10:16:28.049Z,50.834805
2022-10-07T10:17:27.961Z,50.834812
2022-10-07T10:18:28.011Z,50.834801
2022-10-07T10:19:28.006Z,50.834785
2022-10-07T10:20:27.928Z,50.834797
2022-10-07T10:21:27.917Z,50.834789
2022-10-07T10:22:27.919Z,50.834785
2022-10-07T10:23:27.901Z,50.834778
2022-10-07T10:24:27.918Z,50.834778
2022-10-07T10:25:27.925Z,50.834774
2022-10-07T10:26:32.754Z,50.834774
2022-10-07T10:27:29.892Z,50.834782
2022-10-07T10:28:27.937Z,50.834766
2022-10-07T10:29:27.873Z,50.834778
2022-10-07T10:30:27.902Z,50.834797
2022-10-07T10:31:27.929Z,50.834801
2022-10-07T10:32:27.867Z,50.834793
2022-10-07T10:33:27.810Z,50.834797
2022-10-07T10:34:27.873Z,50.834824
2022-10-07T10:35:28.597Z,50.834835
2022-10-07T10:36:27.846Z,50.834801
2022-10-07T10:37:27.789Z,50.834785
2022-10-07T10:38:27.791Z,50.834812
2022-10-07T10:39:27.861Z,50.834808
2022-10-07T10:40:27.803Z,50.834785
2022-10-07T10:41:27.784Z,50.834785
2022-10-07T10:42:27.790Z,50.834785
2022-10-07T10:43:27.835Z,50.834793
2022-10-07T10:44:27.774Z,50.834801
2022-10-07T10:45:27.785Z,50.834808
2022-10-07T10:46:27.874Z,50.834805
2022-10-07T10:47:27.781Z,50.834812
2022-10-07T10:48:27.720Z,50.834816
2022-10-07T10:49:28.688Z,50.834816
2022-10-07T10:50:27.730Z,50.834816
2022-10-07T10:51:27.723Z,50.834824
2022-10-07T10:52:27.699Z,50.834820
2022-10-07T10:53:27.701Z,50.834831
2022-10-07T10:54:27.758Z,50.834824
2022-10-07T10:55:27.637Z,50.834824
2022-10-07T10:56:27.683Z,50.834820
2022-10-07T10:57:27.678Z,50.834820
2022-10-07T10:58:27.617Z,50.834816
2022-10-07T10:59:27.627Z,50.834839
2022-10-07T11:00:27.627Z,50.834820
2022-10-07T11:01:27.674Z,50.834801
2022-10-07T11:02:27.695Z,50.834812
2022-10-07T11:03:27.609Z,50.834812
2022-10-07T11:04:28.325Z,50.834801
2022-10-07T11:05:27.631Z,50.834820
2022-10-07T11:06:27.604Z,50.834820
2022-10-07T11:07:27.572Z,50.834824
2022-10-07T11:08:27.780Z,50.834827
2022-10-07T11:09:30.605Z,50.834808
2022-10-07T11:10:28.556Z,50.834793
2022-10-07T11:11:28.320Z,50.834785
2022-10-07T11:12:27.518Z,50.834812
2022-10-07T11:13:27.522Z,50.834824
2022-10-07T11:14:27.520Z,50.834812
2022-10-07T11:15:27.528Z,50.834808
2022-10-07T11:16:27.529Z,50.834824
2022-10-07T11:17:28.510Z,50.834827
2022-10-07T11:18:28.115Z,50.834824
2022-10-07T11:19:27.486Z,50.834820
2022-10-07T11:20:27.460Z,50.834808
2022-10-07T11:21:27.461Z,50.834820
2022-10-07T11:22:27.464Z,50.834816
2022-10-07T11:23:27.404Z,50.834812
2022-10-07T11:24:27.487Z,50.834808
2022-10-07T11:25:27.480Z,50.834801
2022-10-07T11:26:33.782Z,50.834812
2022-10-07T11:27:29.401Z,50.834831
2022-10-07T11:28:27.443Z,50.834816
2022-10-07T11:29:27.421Z,50.834839
2022-10-07T11:30:27.364Z,50.834808
2022-10-07T11:31:27.475Z,50.834808
2022-10-07T11:32:27.433Z,50.834801
2022-10-07T11:33:27.356Z,50.834789
2022-10-07T11:34:27.376Z,50.834785
2022-10-07T11:35:27.367Z,50.834801
2022-10-07T11:36:27.333Z,50.834793
2022-10-07T11:37:27.336Z,50.834785
2022-10-07T11:38:27.398Z,50.834801
2022-10-07T11:39:27.315Z,50.834801
2022-10-07T11:40:29.143Z,50.834797
2022-10-07T11:41:28.305Z,50.834778
2022-10-07T11:42:27.285Z,50.834797
2022-10-07T11:43:27.408Z,50.834793
2022-10-07T11:44:27.311Z,50.834778
2022-10-07T11:45:27.370Z,50.834770
2022-10-07T11:46:27.286Z,50.834778
2022-10-07T11:47:27.362Z,50.834793
2022-10-07T11:48:27.242Z,50.834805
2022-10-07T11:49:27.260Z,50.834797
2022-10-07T11:50:27.287Z,50.834789
2022-10-07T11:51:27.243Z,50.834793
2022-10-07T11:52:27.263Z,50.834785
2022-10-07T11:53:27.280Z,50.834789
2022-10-07T11:54:28.241Z,50.834793
2022-10-07T11:55:27.185Z,50.834766
2022-10-07T11:56:27.276Z,50.834797
2022-10-07T11:57:27.330Z,50.834766
2022-10-07T11:58:27.220Z,50.834766
2022-10-07T11:59:27.238Z,50.834766
2022-10-07T12:00:27.206Z,50.834759
2022-10-07T12:01:27.254Z,50.834755
2022-10-07T12:02:27.211Z,50.834747
2022-10-07T12:03:27.209Z,50.834740
2022-10-07T12:04:27.662Z,50.834774
2022-10-07T12:05:27.171Z,50.834766
2022-10-07T12:06:27.108Z,50.834766